Chatham Island — 3ELD9 — position and weather

sailwx.info

Track history (hours):
 
Tides and Currents Weather Stations Pressure Air Temp Water Temp Dewpoint Dewpoint Depression Visibility Wind Speed Wind Dir Waves Ship Positions

Chatham Island

Last reported at 2018-Jul-17 22:58 UTC. Time now 2018-Jul-20 21:50 UTC.
Position N 27°37' W 015°24'.

Length 171 m; draft 10.4 m.

Type: Cargo ship. MMSI: 372926000.

Date/timePositionNaut miles runAvg speedWind from/ knotsBaromVisibWave heightAir tempDewpointWater temp
2018-Jul-17 22:58N 27°37' W 015°24'714.7
2018-Jul-17 22:28N 27°44' W 015°21'714.7
2018-Jul-17 22:00N 27°50' W 015°18'713.1
2018-Jul-17 21:30N 27°56' W 015°16'713.5
2018-Jul-17 21:00N 28°02' W 015°19'611.6
2018-Jul-17 20:30N 28°07' W 015°22'2 3.8
2018-Jul-17 19:54N 28°06' W 015°24'0 0.0
2018-Jul-17 19:24N 28°06' W 015°24'0 0.0
2018-Jul-17 18:57N 28°06' W 015°24'0 0.0
2018-Jul-17 18:27N 28°06' W 015°24'0 0.0
2018-Jul-17 17:57N 28°06' W 015°24'0 0.0
2018-Jul-17 17:27N 28°06' W 015°24'0 0.0
2018-Jul-17 16:57N 28°06' W 015°24'0 0.0
2018-Jul-17 16:27N 28°06' W 015°24'0 0.0
2018-Jul-17 16:00N 28°06' W 015°24'0 0.0
2018-Jul-17 15:30N 28°06' W 015°24'0 0.0
2018-Jul-17 15:00N 28°06' W 015°24'0 0.0
2018-Jul-17 14:27N 28°06' W 015°24'0 0.0
2018-Jul-17 14:00N 28°06' W 015°24'0 0.0
2018-Jul-17 13:30N 28°06' W 015°24'0 0.1
2018-Jul-17 13:00N 28°06' W 015°24'1 2.7
2018-Jul-17 12:30N 28°07' W 015°23'2 3.1
2018-Jul-17 12:00N 28°07' W 015°21'0 1.0
2018-Jul-17 11:30N 28°07' W 015°21'0 0.8
2018-Jul-17 11:00N 28°07' W 015°21'3 5.5
2018-Jul-17 10:30N 28°09' W 015°19'612.3
2018-Jul-17 10:00N 28°15' W 015°15'713.7
2018-Jul-17 09:30N 28°20' W 015°10'713.6
2018-Jul-17 09:00N 28°25' W 015°05'713.2
2018-Jul-17 08:30N 28°30' W 015°00'713.0
2018-Jul-17 07:59N 28°35' W 014°55'713.5
2018-Jul-17 07:28N 28°40' W 014°50'1013.4
2018-Jul-17 06:43N 28°48' W 014°42'2013.6
2018-Jul-17 05:14N 29°03' W 014°27'713.6
2018-Jul-17 04:42N 29°08' W 014°22'  
2018-Jul-11 00:08N 33°08' W 008°42'0 1.5
2018-Jul-10 23:58N 33°08' W 008°42'2 3.7
2018-Jul-10 23:30N 33°09' W 008°44'  
Track history (hours):
 
Tides and Currents Weather Stations Pressure Air Temp Water Temp Dewpoint Dewpoint Depression Visibility Wind Speed Wind Dir Waves Ship Positions

Chatham Island

Last reported at 2018-Jul-17 22:58 UTC. Time now 2018-Jul-20 21:50 UTC.
Position N 27°37' W 015°24'.

Length 171 m; draft 10.4 m.

Type: Cargo ship. MMSI: 372926000.

Date/timePositionNaut miles runAvg speedWind from/ knotsBaromVisibWave heightAir tempDewpointWater temp
2018-Jul-17 22:58N 27°37' W 015°24'714.7
2018-Jul-17 22:28N 27°44' W 015°21'714.7
2018-Jul-17 22:00N 27°50' W 015°18'713.1
2018-Jul-17 21:30N 27°56' W 015°16'713.5
2018-Jul-17 21:00N 28°02' W 015°19'611.6
2018-Jul-17 20:30N 28°07' W 015°22'2 3.8
2018-Jul-17 19:54N 28°06' W 015°24'0 0.0
2018-Jul-17 19:24N 28°06' W 015°24'0 0.0
2018-Jul-17 18:57N 28°06' W 015°24'0 0.0
2018-Jul-17 18:27N 28°06' W 015°24'0 0.0
2018-Jul-17 17:57N 28°06' W 015°24'0 0.0
2018-Jul-17 17:27N 28°06' W 015°24'0 0.0
2018-Jul-17 16:57N 28°06' W 015°24'0 0.0
2018-Jul-17 16:27N 28°06' W 015°24'0 0.0
2018-Jul-17 16:00N 28°06' W 015°24'0 0.0
2018-Jul-17 15:30N 28°06' W 015°24'0 0.0
2018-Jul-17 15:00N 28°06' W 015°24'0 0.0
2018-Jul-17 14:27N 28°06' W 015°24'0 0.0
2018-Jul-17 14:00N 28°06' W 015°24'0 0.0
2018-Jul-17 13:30N 28°06' W 015°24'0 0.1
2018-Jul-17 13:00N 28°06' W 015°24'1 2.7
2018-Jul-17 12:30N 28°07' W 015°23'2 3.1
2018-Jul-17 12:00N 28°07' W 015°21'0 1.0
2018-Jul-17 11:30N 28°07' W 015°21'0 0.8
2018-Jul-17 11:00N 28°07' W 015°21'3 5.5
2018-Jul-17 10:30N 28°09' W 015°19'612.3
2018-Jul-17 10:00N 28°15' W 015°15'713.7
2018-Jul-17 09:30N 28°20' W 015°10'713.6
2018-Jul-17 09:00N 28°25' W 015°05'713.2
2018-Jul-17 08:30N 28°30' W 015°00'713.0
2018-Jul-17 07:59N 28°35' W 014°55'713.5
2018-Jul-17 07:28N 28°40' W 014°50'1013.4
2018-Jul-17 06:43N 28°48' W 014°42'2013.6
2018-Jul-17 05:14N 29°03' W 014°27'713.6
2018-Jul-17 04:42N 29°08' W 014°22'  
2018-Jul-11 00:08N 33°08' W 008°42'0 1.5
2018-Jul-10 23:58N 33°08' W 008°42'2 3.7
2018-Jul-10 23:30N 33°09' W 008°44'  

Dump ship's entire track history